Strona główna
METAR-TAF:

METAR-TAF

Lotnisko :

Nashua, New Hampshire, Stany Zjednoczone

Szerokość geograficzna: 42-47N, Długość geograficzna: 071-31W, wysokość: 61 m

Aktualna obserwacja pogody

Raport powstał 10 minut temu, godzina 03:23 UTC
Wiatr 6 kt od północny wschód w porywach dochodzący do 14 kt
Temperatura 7°C
Wilgotność 100%
Ciśnienie 1014 hPa
Widzialność: 8.0 km
Przerywane chmury na wysokości 1100 ft
Zachmurzenie całkowite na wysokości 1400 ft
słaby deszcz, zamglenie

METAR: KASH 040323Z AUTO 04006G14KT 5SM -RA BR BKN011 OVC014 07/07 A2993 RMK AO2 CIG 006V013 P0000

czas: 23:33 (03:33 UTC)


TAF: brakujący

Obserwacja i prognoza pogody dla ponad 4000 lotnisk (raport METAR i TAF).

Dostępne stacje oznaczono żółtymi i czerwonymi punktami na mapie.

Najedź kursorem aby zobaczyć nazwę stacji.

Kliknij aby zobaczyć obserwacje i prognozy pogody.

Aby zmienić mapę: kliknij na zielony przycisk z czarnym krzyżykiem, aby powiększyć; na zielony przycisk z myślnikiem, aby pomniejszyć; na zielone strzałki, aby przejść do map sąsiednich.


METAR-TAF: